Startpagina
METAR-TAF:

METAR-TAF

Vliegvelden :

Luchthaven Stockholm-Arlanda

Stockholm-Arlanda, Zweden

breedte: 59-39N, lengte: 017-57E, hoogte: 38 m

Actueel weer

Dit bericht is 42 minuten geleden gemaakt, om 11:20 UTC
Wind 9 kt uit het oostzuidoosten
Temperatuur 4°C
Vochtigheid 93%
Druk 1022 hPa
Zicht 10 km of meer
Gebroken wolken op 1100 ft
Geheel bewolkt op 1800 ft
lichte motregen

METAR: ESSA 221120Z 12009KT 9999 -DZ BKN011 OVC018 04/03 Q1022 R01L/29//95 R08/29//95 R01R/29//95 NOSIG

Tijdstip: 13:02 (12:02 UTC)

Verwachting

Dit bericht is 32 minuten geleden gemaakt, om 11:30 UTC
Verwachting geldig van 22 om 12 UTC tot 23 om 12 UTC
Wind 10 kt uit het zuidoosten
Zicht 10 km of meer
Gebroken wolken op 1000 ft
Tijdelijke
van 22 om 12 UTC tot 23 om 12 UTC
Zicht: 2000 m
Gebroken wolken op 600 ft
regen, nevel

TAF: ESSA 221130Z 2212/2312 13010KT 9999 BKN010 TEMPO 2212/2312 2000 RA BR BKN006

Waarnemingen en weersverwachtingen van meer dan 4000 vliegvelden (METAR en TAF).

De beschikbare stations zijn de gele en rode punten op de kaart.

Ga met uw muis naar het station om de naam te zien.

Klik dan om waarnemingen en weersverwachtingen te zien.

kaart wijzigen: klik op de groene knoppen met een zwart kruis om in te zoomen, op de groene knop met een streepje om uit te zoomen of op de groene pijlen voor aangrenzende kaarten.


METAR-TAF: